createdAt,value
2017-10-09T00:00:16.746Z,0.8
2017-10-09T00:02:17.538Z,0.8
2017-10-09T00:04:21.340Z,0.7
2017-10-09T00:06:17.170Z,0.6
2017-10-09T00:08:20.968Z,1.3
2017-10-09T00:10:17.780Z,0.9
2017-10-09T00:12:16.607Z,0.8
2017-10-09T00:14:21.394Z,0.6
2017-10-09T00:16:17.202Z,0.7
2017-10-09T00:18:17.999Z,0.8
2017-10-09T00:20:17.832Z,0.6
2017-10-09T00:22:20.601Z,0.8
2017-10-09T00:24:17.421Z,0.6
2017-10-09T00:26:18.233Z,0.8
2017-10-09T00:28:21.007Z,0.5
2017-10-09T00:30:16.835Z,0.6
2017-10-09T00:32:20.613Z,0.8
2017-10-09T00:34:17.443Z,0.7
2017-10-09T00:36:17.247Z,0.7
2017-10-09T00:38:21.030Z,0.8
2017-10-09T00:40:17.857Z,0.7
2017-10-09T00:42:20.620Z,0.7
2017-10-09T00:44:17.448Z,0.7
2017-10-09T00:46:17.272Z,0.9
2017-10-09T00:48:18.069Z,0.9
2017-10-09T00:50:17.853Z,0.8
2017-10-09T00:52:16.647Z,0.8
2017-10-09T00:54:17.459Z,0.6
2017-10-09T00:56:17.246Z,1.2
2017-10-09T00:58:21.012Z,1.2
2017-10-09T01:00:20.810Z,0.7
2017-10-09T01:02:20.618Z,1.1
2017-10-09T01:04:18.436Z,1.1
2017-10-09T01:06:17.192Z,0.9
2017-10-09T01:08:17.960Z,1.1
2017-10-09T01:10:17.775Z,0.9
2017-10-09T01:12:17.563Z,0.9
2017-10-09T01:14:18.351Z,1.2
2017-10-09T01:16:18.120Z,0.8
2017-10-09T01:18:17.914Z,1.1
2017-10-09T01:20:20.692Z,1.3
2017-10-09T01:22:17.496Z,1
2017-10-09T01:24:17.293Z,1.1
2017-10-09T01:26:17.072Z,1.1
2017-10-09T01:28:17.857Z,1.3
2017-10-09T01:30:17.649Z,1.2
2017-10-09T01:32:17.449Z,1.3
2017-10-09T01:34:17.262Z,1.2
2017-10-09T01:36:18.038Z,1.3
2017-10-09T01:38:17.822Z,1.1
2017-10-09T01:40:17.609Z,1.3
2017-10-09T01:42:18.381Z,1.3
2017-10-09T01:44:18.168Z,1
2017-10-09T01:46:17.958Z,0.9
2017-10-09T01:48:17.736Z,1
2017-10-09T01:50:20.499Z,1.2
2017-10-09T01:52:21.297Z,1.1
2017-10-09T01:54:21.074Z,1
2017-10-09T01:56:16.883Z,1.1
2017-10-09T01:58:17.676Z,1.1
2017-10-09T02:00:18.456Z,1.3
2017-10-09T02:02:21.245Z,0.9
2017-10-09T02:04:21.035Z,0.8
2017-10-09T02:06:16.869Z,1.2
2017-10-09T02:08:17.616Z,0.8
2017-10-09T02:10:17.415Z,1
2017-10-09T02:12:18.181Z,0.9
2017-10-09T02:14:20.964Z,1.3
2017-10-09T02:16:16.780Z,0.8
2017-10-09T02:18:17.564Z,0.9
2017-10-09T02:20:18.336Z,0.7
2017-10-09T02:22:18.121Z,1.3
2017-10-09T02:24:20.904Z,1.3
2017-10-09T02:26:17.694Z,0.8
2017-10-09T02:28:21.482Z,1
2017-10-09T02:30:18.286Z,0.9
2017-10-09T02:32:18.061Z,1
2017-10-09T02:34:20.853Z,0.9
2017-10-09T02:36:17.656Z,1
2017-10-09T02:38:21.432Z,1
2017-10-09T02:40:17.255Z,1
2017-10-09T02:42:18.013Z,1.2
2017-10-09T02:44:16.801Z,1.5
2017-10-09T02:46:17.598Z,0.9
2017-10-09T02:48:21.379Z,0.9
2017-10-09T02:50:21.178Z,1
2017-10-09T02:52:17.969Z,1
2017-10-09T02:54:20.769Z,1
2017-10-09T02:56:17.569Z,1.2
2017-10-09T02:58:17.371Z,0.8
2017-10-09T03:00:18.137Z,1
2017-10-09T03:02:16.953Z,0.9
2017-10-09T03:04:20.713Z,0.9
2017-10-09T03:06:17.509Z,1.1
2017-10-09T03:08:21.595Z,0.6
2017-10-09T03:10:17.097Z,0.9
2017-10-09T03:12:17.878Z,1.6
2017-10-09T03:14:17.893Z,0.7
2017-10-09T03:16:17.448Z,1.1
2017-10-09T03:18:18.227Z,0.9
2017-10-09T03:20:18.020Z,0.8
2017-10-09T03:22:20.778Z,0.9
2017-10-09T03:24:20.562Z,0.8
2017-10-09T03:26:17.339Z,0.8
2017-10-09T03:28:18.116Z,0.9
2017-10-09T03:30:17.904Z,1.1
2017-10-09T03:32:17.671Z,1.4
2017-10-09T03:34:21.441Z,1.1
2017-10-09T03:36:17.222Z,1
2017-10-09T03:38:18.008Z,0.9
2017-10-09T03:40:17.796Z,0.7
2017-10-09T03:42:17.541Z,0.9
2017-10-09T03:44:21.327Z,1.2
2017-10-09T03:46:18.126Z,0.9
2017-10-09T03:48:17.895Z,1.2
2017-10-09T03:50:17.685Z,0.7
2017-10-09T03:52:21.454Z,1
2017-10-09T03:54:21.219Z,1
2017-10-09T03:56:18.025Z,0.9
2017-10-09T03:58:17.799Z,0.9
2017-10-09T04:00:17.574Z,1
2017-10-09T04:02:21.337Z,0.9
2017-10-09T04:04:18.114Z,1
2017-10-09T04:06:16.916Z,1.1
2017-10-09T04:08:17.685Z,0.8
2017-10-09T04:10:17.473Z,0.9
2017-10-09T04:12:18.240Z,0.7
2017-10-09T04:14:18.035Z,0.8
2017-10-09T04:16:16.810Z,1
2017-10-09T04:18:17.579Z,1
2017-10-09T04:20:21.366Z,1.2
2017-10-09T04:22:18.147Z,1
2017-10-09T04:24:17.906Z,1.2
2017-10-09T04:26:17.709Z,1
2017-10-09T04:28:18.474Z,1.2
2017-10-09T04:30:18.220Z,1.2
2017-10-09T04:32:20.994Z,1.3
2017-10-09T04:34:20.777Z,1
2017-10-09T04:36:17.551Z,1
2017-10-09T04:38:18.332Z,1.2
2017-10-09T04:40:17.102Z,1.2
2017-10-09T04:42:20.898Z,1.1
2017-10-09T04:44:17.689Z,1.2
2017-10-09T04:46:17.460Z,1.5
2017-10-09T04:48:21.214Z,1.4
2017-10-09T04:50:20.991Z,1.5
2017-10-09T04:52:20.787Z,1.2
2017-10-09T04:54:17.574Z,1.4
2017-10-09T04:56:17.376Z,1.4
2017-10-09T04:58:18.120Z,1
2017-10-09T05:00:20.893Z,1.3
2017-10-09T05:02:20.651Z,1.2
2017-10-09T05:04:21.411Z,1.3
2017-10-09T05:06:17.224Z,1.6
2017-10-09T05:08:17.989Z,1.5
2017-10-09T05:10:17.768Z,1.1
2017-10-09T05:12:17.536Z,1.3
2017-10-09T05:14:18.290Z,1.5
2017-10-09T05:16:17.052Z,1.3
2017-10-09T05:18:17.823Z,1.4
2017-10-09T05:20:17.586Z,1.3
2017-10-09T05:22:18.358Z,1.3
2017-10-09T05:24:18.129Z,1.3
2017-10-09T05:26:17.872Z,1.9
2017-10-09T05:28:17.638Z,1.4
2017-10-09T05:30:18.404Z,1.1
2017-10-09T05:32:18.166Z,1.3
2017-10-09T05:34:17.922Z,1.3
2017-10-09T05:36:17.694Z,1.8
2017-10-09T05:38:18.448Z,1.8
2017-10-09T05:40:17.216Z,1.3
2017-10-09T05:42:17.967Z,1.5
2017-10-09T05:44:17.718Z,1.2
2017-10-09T05:46:17.495Z,1.9
2017-10-09T05:48:18.243Z,1.8
2017-10-09T05:50:17.998Z,1.3
2017-10-09T05:52:17.760Z,1.1
2017-10-09T05:54:17.517Z,1.2
2017-10-09T05:56:17.279Z,1.1
2017-10-09T05:58:18.023Z,1.5
2017-10-09T06:00:17.796Z,1.4
2017-10-09T06:02:17.536Z,1.4
2017-10-09T06:04:18.288Z,1.6
2017-10-09T06:06:17.027Z,1
2017-10-09T06:08:17.776Z,1.6
2017-10-09T06:10:17.515Z,1.2
2017-10-09T06:12:18.259Z,1.3
2017-10-09T06:14:18.006Z,1.4
2017-10-09T06:16:17.758Z,1.2
2017-10-09T06:18:17.498Z,1.4
2017-10-09T06:20:18.245Z,1.9
2017-10-09T06:22:17.984Z,1.3
2017-10-09T06:24:20.751Z,1.5
2017-10-09T06:26:17.516Z,1.7
2017-10-09T06:28:18.265Z,1.6
2017-10-09T06:30:18.012Z,1.8
2017-10-09T06:32:20.765Z,2
2017-10-09T06:34:17.559Z,2
2017-10-09T06:36:18.287Z,1.6
2017-10-09T06:38:18.067Z,2.2
2017-10-09T06:40:17.810Z,2.5
2017-10-09T06:42:17.589Z,2.9
2017-10-09T06:44:18.345Z,3.2
2017-10-09T06:46:17.099Z,3.6
2017-10-09T06:48:17.866Z,3.7
2017-10-09T06:50:17.640Z,3.7
2017-10-09T06:52:18.400Z,4.8
2017-10-09T06:54:18.178Z,4.5
2017-10-09T06:56:17.942Z,5.1
2017-10-09T06:58:17.705Z,4.7
2017-10-09T07:00:18.476Z,5.2
2017-10-09T07:02:18.252Z,5.2
2017-10-09T07:04:18.008Z,5
2017-10-09T07:06:16.783Z,5.5
2017-10-09T07:08:17.523Z,5.8
2017-10-09T07:10:17.296Z,5.6
2017-10-09T07:12:18.045Z,5.2
2017-10-09T07:14:20.801Z,5.4
2017-10-09T07:16:17.605Z,5.3
2017-10-09T07:18:18.345Z,6
2017-10-09T07:20:18.142Z,5.6
2017-10-09T07:22:17.886Z,5.4
2017-10-09T07:24:17.648Z,4.7
2017-10-09T07:26:17.410Z,5.4
2017-10-09T07:28:18.166Z,6.1
2017-10-09T07:30:17.963Z,5.4
2017-10-09T07:32:17.721Z,5.2
2017-10-09T07:34:17.476Z,5.7
2017-10-09T07:36:17.232Z,5.7
2017-10-09T07:38:18.002Z,5.6
2017-10-09T07:40:17.789Z,5.8
2017-10-09T07:42:17.533Z,5.2
2017-10-09T07:44:21.304Z,5.2
2017-10-09T07:46:17.095Z,6.1
2017-10-09T07:48:17.865Z,6.1
2017-10-09T07:50:20.646Z,6
2017-10-09T07:52:21.402Z,5.8
2017-10-09T07:54:21.186Z,5.2
2017-10-09T07:56:17.961Z,5.7
2017-10-09T07:58:17.739Z,5.4
2017-10-09T08:00:17.519Z,5.5
2017-10-09T08:02:18.287Z,6.1
2017-10-09T08:04:21.056Z,5.2
2017-10-09T08:06:16.854Z,5.5
2017-10-09T08:08:17.616Z,5.4
2017-10-09T08:10:17.395Z,5.5
2017-10-09T08:12:21.156Z,4.8
2017-10-09T08:14:20.958Z,4.7
2017-10-09T08:16:17.737Z,4.6
2017-10-09T08:18:17.522Z,4.6
2017-10-09T08:20:18.289Z,4.6
2017-10-09T08:22:18.040Z,4.6
2017-10-09T08:24:17.830Z,4.3
2017-10-09T08:26:17.594Z,4.2
2017-10-09T08:28:18.366Z,4.3
2017-10-09T08:30:18.121Z,4.1
2017-10-09T08:32:17.873Z,4.3
2017-10-09T08:34:17.658Z,4.1
2017-10-09T08:36:17.428Z,4.5
2017-10-09T08:38:21.172Z,4.5
2017-10-09T08:40:17.971Z,4.1
2017-10-09T08:42:17.726Z,4
2017-10-09T08:44:17.505Z,4.3
2017-10-09T08:46:17.288Z,4.2
2017-10-09T08:48:18.065Z,4.6
2017-10-09T08:50:17.832Z,3.7
2017-10-09T08:52:17.604Z,4.6
2017-10-09T08:54:21.398Z,3.8
2017-10-09T08:56:17.204Z,3.8
2017-10-09T08:58:17.998Z,3.5
2017-10-09T09:00:20.774Z,3.5
2017-10-09T09:02:20.567Z,3.6
2017-10-09T09:04:17.378Z,3.4
2017-10-09T09:06:17.190Z,3.4
2017-10-09T09:08:20.961Z,3.1
2017-10-09T09:10:17.795Z,2.7
2017-10-09T09:12:20.600Z,2.9
2017-10-09T09:14:18.394Z,3
2017-10-09T09:16:17.208Z,2.4
2017-10-09T09:18:18.019Z,3.1
2017-10-09T09:20:17.803Z,2.3
2017-10-09T09:22:16.643Z,2.5
2017-10-09T09:24:21.438Z,2.1
2017-10-09T09:26:17.267Z,2.3
2017-10-09T09:28:17.099Z,2.6
2017-10-09T09:30:17.914Z,2.2
2017-10-09T09:32:16.737Z,2.4
2017-10-09T09:34:20.522Z,3
2017-10-09T09:36:17.356Z,2
2017-10-09T09:38:17.201Z,2.6
2017-10-09T09:40:17.020Z,1.7
2017-10-09T09:42:16.866Z,2.3
2017-10-09T09:44:16.681Z,1.8
2017-10-09T09:46:17.510Z,1.6
2017-10-09T09:48:17.332Z,1.3
2017-10-09T09:50:17.188Z,1.6
2017-10-09T09:52:17.036Z,1.4
2017-10-09T09:54:20.836Z,1.5
2017-10-09T09:56:17.673Z,1.4
2017-10-09T09:58:17.529Z,1.1
2017-10-09T10:00:17.350Z,2.3
2017-10-09T10:02:17.191Z,0.9
2017-10-09T10:04:17.022Z,1.4
2017-10-09T10:06:20.832Z,1.4
2017-10-09T10:08:16.676Z,1.3
2017-10-09T10:10:17.509Z,1
2017-10-09T10:12:17.337Z,1.1
2017-10-09T10:14:21.154Z,23.5
2017-10-09T10:16:17.012Z,23.9
2017-10-09T10:18:17.859Z,13.2
2017-10-09T10:20:20.660Z,15
2017-10-09T10:22:17.526Z,3.5
2017-10-09T10:24:17.377Z,3
2017-10-09T10:26:18.220Z,6.4
2017-10-09T10:28:17.068Z,2.7
2017-10-09T10:30:20.910Z,1.1
2017-10-09T10:32:16.766Z,3
2017-10-09T10:34:16.608Z,1.4
2017-10-09T10:36:17.468Z,1.6
2017-10-09T10:38:17.349Z,0.5
2017-10-09T10:40:17.206Z,1
2017-10-09T10:42:17.074Z,1
2017-10-09T10:44:16.949Z,0.8
2017-10-09T10:46:17.810Z,0.6
2017-10-09T10:48:16.731Z,0.6
2017-10-09T10:50:16.573Z,0.5
2017-10-09T10:52:17.452Z,0.4
2017-10-09T10:54:17.329Z,0.6
2017-10-09T10:56:18.192Z,0.6
2017-10-09T10:58:17.085Z,0.7
2017-10-09T11:00:16.989Z,0.8
2017-10-09T11:02:16.869Z,0.7
2017-10-09T11:04:16.775Z,0.6
2017-10-09T11:06:17.642Z,1.1
2017-10-09T11:08:17.524Z,0.5
2017-10-09T11:10:17.428Z,0.8
2017-10-09T11:12:17.296Z,3.8
2017-10-09T11:14:17.185Z,25.8
2017-10-09T11:16:18.070Z,37.1
2017-10-09T11:18:16.968Z,22.3
2017-10-09T11:20:16.846Z,29.2
2017-10-09T11:22:16.745Z,27.3
2017-10-09T11:24:16.619Z,10.9
2017-10-09T11:26:17.473Z,4.8
2017-10-09T11:28:17.381Z,10.5
2017-10-09T11:30:17.249Z,8.1
2017-10-09T11:32:17.119Z,28.7
2017-10-09T11:34:17.021Z,16.7
2017-10-09T11:36:17.922Z,8.1
2017-10-09T11:38:16.775Z,6.4
2017-10-09T11:40:17.654Z,1.3
2017-10-09T11:42:17.561Z,2.4
2017-10-09T11:44:17.449Z,2.8
2017-10-09T11:46:17.334Z,2.8
2017-10-09T11:48:17.214Z,17.9
2017-10-09T11:50:17.120Z,9.3
2017-10-09T11:52:17.019Z,6.8
2017-10-09T11:54:16.908Z,8.1
2017-10-09T11:56:17.807Z,4.9
2017-10-09T11:58:16.714Z,1.7
2017-10-09T12:00:17.573Z,1.5
2017-10-09T12:02:17.490Z,2
2017-10-09T12:04:17.387Z,1
2017-10-09T12:06:17.286Z,0.7
2017-10-09T12:08:17.180Z,0.7
2017-10-09T12:10:18.072Z,0.6
2017-10-09T12:12:16.965Z,0.6
2017-10-09T12:14:16.850Z,0.6
2017-10-09T12:16:17.728Z,0.7
2017-10-09T12:18:17.637Z,0.4
2017-10-09T12:20:17.521Z,0.8
2017-10-09T12:22:17.413Z,0.4
2017-10-09T12:24:17.325Z,0.6
2017-10-09T12:26:18.234Z,0.7
2017-10-09T12:28:17.172Z,0.4
2017-10-09T12:30:17.070Z,0.4
2017-10-09T12:32:16.981Z,0.4
2017-10-09T12:34:16.879Z,0.5
2017-10-09T12:36:17.802Z,0.8
2017-10-09T12:38:16.700Z,0.5
2017-10-09T12:40:17.620Z,0.9
2017-10-09T12:42:17.514Z,0.7
2017-10-09T12:44:17.424Z,0.6
2017-10-09T12:46:17.326Z,0.5
2017-10-09T12:48:17.243Z,0.4
2017-10-09T12:50:17.150Z,0.6
2017-10-09T12:52:17.048Z,0.4
2017-10-09T12:54:16.956Z,0.7
2017-10-09T12:56:16.874Z,0.4
2017-10-09T12:58:16.807Z,0.6
2017-10-09T13:00:16.731Z,1
2017-10-09T13:02:16.637Z,0.5
2017-10-09T13:04:17.578Z,0.7
2017-10-09T13:06:17.509Z,0.6
2017-10-09T13:08:17.449Z,0.7
2017-10-09T13:10:17.387Z,0.8
2017-10-09T13:12:17.320Z,0.7
2017-10-09T13:14:17.243Z,0.9
2017-10-09T13:16:17.175Z,0.8
2017-10-09T13:18:17.100Z,0.6
2017-10-09T13:20:17.034Z,0.7
2017-10-09T13:22:16.980Z,0.5
2017-10-09T13:24:16.904Z,0.6
2017-10-09T13:26:17.845Z,0.8
2017-10-09T13:28:16.770Z,0.9
2017-10-09T13:30:16.692Z,0.8
2017-10-09T13:32:17.624Z,0.7
2017-10-09T13:34:17.583Z,0.7
2017-10-09T13:36:17.506Z,0.8
2017-10-09T13:38:17.402Z,0.6
2017-10-09T13:40:17.338Z,1
2017-10-09T13:42:17.263Z,0.8
2017-10-09T13:44:17.205Z,0.8
2017-10-09T13:46:18.111Z,0.7
2017-10-09T13:48:17.022Z,0.8
2017-10-09T13:50:16.942Z,0.8
2017-10-09T13:52:16.872Z,0.7
2017-10-09T13:54:16.803Z,0.6
2017-10-09T13:56:17.715Z,0.4
2017-10-09T13:58:17.646Z,0.7
2017-10-09T14:00:17.585Z,0.7
2017-10-09T14:02:17.498Z,0.5
2017-10-09T14:04:17.393Z,0.7
2017-10-09T14:06:17.320Z,0.5
2017-10-09T14:08:17.237Z,0.4
2017-10-09T14:10:17.180Z,0.7
2017-10-09T14:12:17.121Z,0.4
2017-10-09T14:14:17.037Z,0.4
2017-10-09T14:16:17.951Z,0.2
2017-10-09T14:18:16.891Z,0.3
2017-10-09T14:20:16.812Z,0.4
2017-10-09T14:22:16.760Z,0.5
2017-10-09T14:24:16.660Z,0.5
2017-10-09T14:26:17.601Z,0.3
2017-10-09T14:28:17.518Z,0.3
2017-10-09T14:30:17.438Z,0.3
2017-10-09T14:40:18.036Z,0.4
2017-10-09T14:42:16.950Z,0.5
2017-10-09T14:44:16.857Z,0.3
2017-10-09T14:46:16.775Z,0.6
2017-10-09T14:48:16.690Z,0.3
2017-10-09T14:50:17.594Z,0.4
2017-10-09T14:52:17.519Z,0.7
2017-10-09T14:54:17.456Z,0.4
2017-10-09T14:56:17.332Z,0.3
2017-10-09T14:58:17.259Z,0.5
2017-10-09T15:00:17.197Z,0.6
2017-10-09T15:02:17.093Z,0.6
2017-10-09T15:04:17.023Z,1
2017-10-09T15:06:16.930Z,0.9
2017-10-09T15:08:16.846Z,0.6
2017-10-09T15:10:17.740Z,0.7
2017-10-09T15:12:16.673Z,0.5
2017-10-09T15:14:17.583Z,0.4
2017-10-09T15:16:17.495Z,0.5
2017-10-09T15:18:18.388Z,0.4
2017-10-09T15:20:17.297Z,0.6
2017-10-09T15:22:17.207Z,0.5
2017-10-09T15:24:17.091Z,0.5
2017-10-09T15:26:16.982Z,0.8
2017-10-09T15:28:16.878Z,0.7
2017-10-09T15:30:16.787Z,0.5
2017-10-09T15:32:16.689Z,0.6
2017-10-09T15:34:17.547Z,0.4
2017-10-09T15:36:17.438Z,0.4
2017-10-09T15:38:17.344Z,0.6
2017-10-09T15:40:17.225Z,0.5
2017-10-09T15:42:17.095Z,0.7
2017-10-09T15:44:16.991Z,0.7
2017-10-09T15:46:17.858Z,0.5
2017-10-09T15:48:16.749Z,0.3
2017-10-09T15:50:16.590Z,0.7
2017-10-09T15:52:17.452Z,0.5
2017-10-09T15:54:17.340Z,0.9
2017-10-09T15:56:17.211Z,0.5
2017-10-09T15:58:17.083Z,0.5
2017-10-09T16:00:16.964Z,0.6
2017-10-09T16:02:16.830Z,0.8
2017-10-09T16:04:16.703Z,0.8
2017-10-09T16:06:17.544Z,0.6
2017-10-09T16:08:17.417Z,0.4
2017-10-09T16:10:17.281Z,0.4
2017-10-09T16:12:17.134Z,0.5
2017-10-09T16:14:16.991Z,0.5
2017-10-09T16:16:16.879Z,1.1
2017-10-09T16:18:17.735Z,0.6
2017-10-09T16:20:16.615Z,0.4
2017-10-09T16:22:17.493Z,0.9
2017-10-09T16:24:17.362Z,0.6
2017-10-09T16:26:17.270Z,1.2
2017-10-09T16:28:17.155Z,1
2017-10-09T16:30:17.042Z,0.6
2017-10-09T16:32:16.906Z,1
2017-10-09T16:34:16.777Z,0.8
2017-10-09T16:36:17.693Z,0.8
2017-10-09T16:38:17.554Z,0.6
2017-10-09T16:40:17.442Z,0.5
2017-10-09T16:42:17.316Z,0.7
2017-10-09T16:44:17.175Z,0.7
2017-10-09T16:46:17.057Z,0.6
2017-10-09T16:48:16.918Z,0.6
2017-10-09T16:50:16.784Z,0.9
2017-10-09T16:52:16.662Z,0.6
2017-10-09T16:54:17.553Z,0.6
2017-10-09T16:56:17.408Z,0.6
2017-10-09T16:58:17.284Z,0.4
2017-10-09T17:00:17.152Z,0.3
2017-10-09T17:02:17.056Z,0.5
2017-10-09T17:04:16.924Z,0.5
2017-10-09T17:06:17.796Z,0.4
2017-10-09T17:08:16.657Z,0.5
2017-10-09T17:10:17.529Z,0.7
2017-10-09T17:12:17.413Z,0.8
2017-10-09T17:14:17.301Z,1.3
2017-10-09T17:16:17.162Z,0.8
2017-10-09T17:18:17.072Z,0.7
2017-10-09T17:20:20.917Z,0.7
2017-10-09T17:22:16.819Z,1.1
2017-10-09T17:24:16.691Z,0.6
2017-10-09T17:26:17.551Z,0.6
2017-10-09T17:28:17.438Z,0.9
2017-10-09T17:30:17.311Z,0.6
2017-10-09T17:32:17.198Z,0.5
2017-10-09T17:34:17.042Z,0.7
2017-10-09T17:36:16.938Z,0.8
2017-10-09T17:38:16.815Z,0.9
2017-10-09T17:40:17.655Z,1.3
2017-10-09T17:42:17.513Z,1.3
2017-10-09T17:44:17.389Z,1.4
2017-10-09T17:46:17.266Z,1.1
2017-10-09T17:48:21.101Z,1.4
2017-10-09T17:50:20.966Z,1.2
2017-10-09T17:52:16.859Z,0.9
2017-10-09T17:54:16.730Z,1.1
2017-10-09T17:56:16.572Z,1.9
2017-10-09T17:58:17.438Z,1.4
2017-10-09T18:00:17.315Z,1.6
2017-10-09T18:02:17.143Z,2.1
2017-10-09T18:04:17.007Z,1.9
2017-10-09T18:06:17.914Z,2.2
2017-10-09T18:08:16.752Z,0.9
2017-10-09T18:10:17.625Z,1.8
2017-10-09T18:12:21.448Z,2
2017-10-09T18:14:17.324Z,1.1
2017-10-09T18:16:18.176Z,1
2017-10-09T18:18:18.027Z,0.7
2017-10-09T18:20:16.911Z,1.6
2017-10-09T18:22:20.726Z,1.7
2017-10-09T18:24:16.585Z,1.7
2017-10-09T18:26:17.443Z,1.1
2017-10-09T18:28:17.306Z,1.2
2017-10-09T18:30:18.114Z,0.9
2017-10-09T18:32:16.960Z,1
2017-10-09T18:34:16.818Z,1.2
2017-10-09T18:36:17.632Z,1.2
2017-10-09T18:38:17.500Z,1.4
2017-10-09T18:40:17.333Z,0.7
2017-10-09T18:42:17.224Z,0.9
2017-10-09T18:44:17.045Z,0.9
2017-10-09T18:46:16.906Z,0.8
2017-10-09T18:48:16.747Z,0.7
2017-10-09T18:50:16.620Z,0.8
2017-10-09T18:52:17.457Z,0.5
2017-10-09T18:54:17.318Z,1
2017-10-09T18:56:17.157Z,0.8
2017-10-09T18:58:17.020Z,0.8
2017-10-09T19:00:20.873Z,0.9
2017-10-09T19:02:20.688Z,1
2017-10-09T19:04:17.554Z,0.7
2017-10-09T19:06:17.433Z,0.9
2017-10-09T19:08:17.272Z,0.9
2017-10-09T19:10:17.107Z,1.1
2017-10-09T19:12:16.976Z,0.8
2017-10-09T19:14:16.834Z,0.8
2017-10-09T19:16:17.671Z,1.1
2017-10-09T19:18:17.532Z,1.2
2017-10-09T19:20:17.390Z,0.9
2017-10-09T19:22:17.224Z,0.7
2017-10-09T19:24:17.083Z,0.7
2017-10-09T19:26:17.932Z,1.1
2017-10-09T19:28:16.787Z,1.2
2017-10-09T19:30:16.623Z,0.7
2017-10-09T19:32:17.488Z,1
2017-10-09T19:34:17.350Z,0.9
2017-10-09T19:36:17.212Z,1.1
2017-10-09T19:38:17.059Z,1
2017-10-09T19:40:17.894Z,1.1
2017-10-09T19:42:16.768Z,1
2017-10-09T19:44:16.590Z,1.2
2017-10-09T19:46:17.438Z,0.8
2017-10-09T19:48:17.285Z,0.7
2017-10-09T19:50:17.140Z,1
2017-10-09T19:52:16.999Z,1.1
2017-10-09T19:54:16.860Z,0.8
2017-10-09T19:56:17.677Z,1.1
2017-10-09T19:58:17.551Z,1
2017-10-09T20:00:18.414Z,1
2017-10-09T20:02:17.252Z,1
2017-10-09T20:04:17.089Z,0.9
2017-10-09T20:06:17.952Z,0.7
2017-10-09T20:08:16.798Z,0.8
2017-10-09T20:10:17.660Z,1.3
2017-10-09T20:12:17.507Z,1.4
2017-10-09T20:14:17.343Z,1
2017-10-09T20:16:17.223Z,2.9
2017-10-09T20:18:18.081Z,2.1
2017-10-09T20:20:20.942Z,1.4
2017-10-09T20:22:16.783Z,1.3
2017-10-09T20:24:16.636Z,1.2
2017-10-09T20:26:17.507Z,1.1
2017-10-09T20:28:17.369Z,1
2017-10-09T20:30:17.237Z,0.9
2017-10-09T20:32:17.117Z,1
2017-10-09T20:34:17.937Z,0.9
2017-10-09T20:36:16.809Z,1.2
2017-10-09T20:38:16.656Z,1.2
2017-10-09T20:40:17.521Z,1.1
2017-10-09T20:42:17.382Z,1
2017-10-09T20:44:17.237Z,0.9
2017-10-09T20:46:17.096Z,1.1
2017-10-09T20:48:16.981Z,1.2
2017-10-09T20:50:20.809Z,0.9
2017-10-09T20:52:16.694Z,1.1
2017-10-09T20:54:17.531Z,1.2
2017-10-09T20:56:17.387Z,1.2
2017-10-09T20:58:17.238Z,1.1
2017-10-09T21:00:17.099Z,1.3
2017-10-09T21:02:16.952Z,1
2017-10-09T21:04:16.806Z,1.5
2017-10-09T21:06:17.642Z,1.1
2017-10-09T21:08:17.521Z,1
2017-10-09T21:10:17.372Z,1
2017-10-09T21:12:17.218Z,1
2017-10-09T21:14:17.066Z,0.9
2017-10-09T21:16:16.915Z,1.2
2017-10-09T21:18:17.784Z,1.3
2017-10-09T21:20:17.619Z,1.7
2017-10-09T21:22:17.478Z,1.3
2017-10-09T21:24:21.295Z,1.1
2017-10-09T21:26:17.160Z,1.1
2017-10-09T21:28:20.988Z,1
2017-10-09T21:30:16.877Z,1.2
2017-10-09T21:32:16.727Z,1.1
2017-10-09T21:34:17.588Z,1.4
2017-10-09T21:36:17.444Z,1.2
2017-10-09T21:38:17.285Z,1.2
2017-10-09T21:40:17.144Z,1.2
2017-10-09T21:42:17.021Z,1
2017-10-09T21:44:17.898Z,1.7
2017-10-09T21:46:16.710Z,1.3
2017-10-09T21:48:17.546Z,1.3
2017-10-09T21:50:17.385Z,1.6
2017-10-09T21:52:17.261Z,1.2
2017-10-09T21:54:17.108Z,1.1
2017-10-09T21:56:17.969Z,1.4
2017-10-09T21:58:16.839Z,1.1
2017-10-09T22:00:16.686Z,1.4
2017-10-09T22:02:17.552Z,1.6
2017-10-09T22:04:17.409Z,1.4
2017-10-09T22:06:17.264Z,1.2
2017-10-09T22:08:17.114Z,1.4
2017-10-09T22:10:18.006Z,1.6
2017-10-09T22:12:16.856Z,1.4
2017-10-09T22:14:16.721Z,1.4
2017-10-09T22:16:17.596Z,1.5
2017-10-09T22:18:18.446Z,1.4
2017-10-09T22:20:17.321Z,1.5
2017-10-09T22:22:17.181Z,1.4
2017-10-09T22:24:17.050Z,1
2017-10-09T22:26:17.885Z,1.5
2017-10-09T22:28:16.779Z,1.2
2017-10-09T22:30:16.628Z,1.4
2017-10-09T22:32:17.507Z,1.2
2017-10-09T22:34:17.383Z,1.5
2017-10-09T22:36:18.252Z,1.3
2017-10-09T22:38:17.087Z,1.4
2017-10-09T22:40:17.964Z,1.4
2017-10-09T22:42:16.808Z,1.2
2017-10-09T22:44:16.679Z,1.5
2017-10-09T22:46:17.538Z,1.7
2017-10-09T22:48:17.393Z,1.5
2017-10-09T22:50:17.248Z,1.4
2017-10-09T22:52:17.099Z,2.1
2017-10-09T22:54:16.975Z,1.8
2017-10-09T22:56:17.824Z,1.5
2017-10-09T22:58:16.722Z,1.8
2017-10-09T23:00:16.574Z,1.8
2017-10-09T23:02:21.419Z,1.7
2017-10-09T23:04:17.285Z,1.3
2017-10-09T23:06:17.133Z,1.9
2017-10-09T23:08:17.032Z,1.2
2017-10-09T23:10:17.890Z,1.7
2017-10-09T23:12:16.772Z,1.8
2017-10-09T23:14:16.634Z,1.4
2017-10-09T23:16:17.505Z,1.6
2017-10-09T23:18:21.370Z,1.4
2017-10-09T23:20:17.228Z,2.1
2017-10-09T23:22:17.112Z,1.7
2017-10-09T23:24:16.982Z,2.1
2017-10-09T23:26:17.836Z,1.9
2017-10-09T23:28:16.726Z,2.1
2017-10-09T23:30:20.552Z,2.4
2017-10-09T23:32:17.425Z,2.5
2017-10-09T23:34:17.290Z,2
2017-10-09T23:36:17.130Z,2.3
2017-10-09T23:38:16.980Z,1.9
2017-10-09T23:40:17.835Z,2.2
2017-10-09T23:42:16.702Z,2.4
2017-10-09T23:44:17.561Z,3.4
2017-10-09T23:46:17.408Z,3.1
2017-10-09T23:48:17.274Z,2.8
2017-10-09T23:50:17.125Z,3.5
2017-10-09T23:52:17.000Z,2.8
2017-10-09T23:54:17.847Z,2.7
2017-10-09T23:56:17.720Z,3
2017-10-09T23:58:16.577Z,2.7
